sensor_id;sensor_type;location;lat;lon;timestamp;pressure;altitude;pressure_sealevel;temperature;humidity
11223;BME280;5668;52.012;8.724;2023-08-07T00:02:02;99438.56;;;17.50;100.00
11223;BME280;5668;52.012;8.724;2023-08-07T00:04:30;99436.09;;;17.48;100.00
11223;BME280;5668;52.012;8.724;2023-08-07T00:06:57;99426.75;;;17.46;100.00
11223;BME280;5668;52.012;8.724;2023-08-07T00:09:24;99433.34;;;17.41;100.00
11223;BME280;5668;52.012;8.724;2023-08-07T00:11:51;99429.09;;;17.40;100.00
11223;BME280;5668;52.012;8.724;2023-08-07T00:14:20;99438.31;;;17.36;100.00
11223;BME280;5668;52.012;8.724;2023-08-07T00:16:47;99427.31;;;17.33;100.00
11223;BME280;5668;52.012;8.724;2023-08-07T00:19:14;99435.03;;;17.34;100.00
11223;BME280;5668;52.012;8.724;2023-08-07T00:21:41;99442.25;;;17.32;100.00
11223;BME280;5668;52.012;8.724;2023-08-07T00:24:09;99442.25;;;17.32;100.00
11223;BME280;5668;52.012;8.724;2023-08-07T00:26:36;99444.22;;;17.30;100.00
11223;BME280;5668;52.012;8.724;2023-08-07T00:29:03;99446.84;;;17.30;100.00
11223;BME280;5668;52.012;8.724;2023-08-07T00:31:32;99438.16;;;17.30;100.00
11223;BME280;5668;52.012;8.724;2023-08-07T00:33:59;99440.97;;;17.28;100.00
11223;BME280;5668;52.012;8.724;2023-08-07T00:36:28;99446.22;;;17.28;100.00
11223;BME280;5668;52.012;8.724;2023-08-07T00:38:55;99445.75;;;17.25;100.00
11223;BME280;5668;52.012;8.724;2023-08-07T00:41:22;99447.38;;;17.26;100.00
11223;BME280;5668;52.012;8.724;2023-08-07T00:43:49;99446.41;;;17.27;100.00
11223;BME280;5668;52.012;8.724;2023-08-07T00:46:17;99457.56;;;17.29;100.00
11223;BME280;5668;52.012;8.724;2023-08-07T00:48:46;99446.03;;;17.30;100.00
11223;BME280;5668;52.012;8.724;2023-08-07T00:51:14;99449.47;;;17.30;100.00
11223;BME280;5668;52.012;8.724;2023-08-07T00:53:42;99443.59;;;17.28;100.00
11223;BME280;5668;52.012;8.724;2023-08-07T00:56:10;99449.03;;;17.27;100.00
11223;BME280;5668;52.012;8.724;2023-08-07T00:58:38;99444.91;;;17.24;100.00
11223;BME280;5668;52.012;8.724;2023-08-07T01:01:05;99449.19;;;17.25;100.00
11223;BME280;5668;52.012;8.724;2023-08-07T01:03:33;99445.75;;;17.25;100.00
11223;BME280;5668;52.012;8.724;2023-08-07T01:06:02;99446.88;;;17.22;100.00
11223;BME280;5668;52.012;8.724;2023-08-07T01:08:29;99457.22;;;17.24;100.00
11223;BME280;5668;52.012;8.724;2023-08-07T01:11:07;99450.16;;;17.24;100.00
11223;BME280;5668;52.012;8.724;2023-08-07T01:13:42;99445.75;;;17.25;100.00
11223;BME280;5668;52.012;8.724;2023-08-07T01:16:21;99438.84;;;17.24;100.00
11223;BME280;5668;52.012;8.724;2023-08-07T01:18:49;99439.84;;;17.23;100.00
11223;BME280;5668;52.012;8.724;2023-08-07T01:21:19;99446.88;;;17.22;100.00
11223;BME280;5668;52.012;8.724;2023-08-07T01:23:48;99442.66;;;17.21;100.00
11223;BME280;5668;52.012;8.724;2023-08-07T01:26:18;99441.63;;;17.22;100.00
11223;BME280;5668;52.012;8.724;2023-08-07T01:28:49;99439.00;;;17.22;100.00
11223;BME280;5668;52.012;8.724;2023-08-07T01:31:21;99442.16;;;17.18;100.00
11223;BME280;5668;52.012;8.724;2023-08-07T01:33:57;99443.97;;;17.17;100.00
11223;BME280;5668;52.012;8.724;2023-08-07T01:36:27;99431.50;;;17.19;100.00
11223;BME280;5668;52.012;8.724;2023-08-07T01:38:56;99432.31;;;17.20;100.00
11223;BME280;5668;52.012;8.724;2023-08-07T01:41:24;99426.56;;;17.16;100.00
11223;BME280;5668;52.012;8.724;2023-08-07T01:43:52;99430.00;;;17.17;100.00
11223;BME280;5668;52.012;8.724;2023-08-07T01:46:21;99429.84;;;17.18;100.00
11223;BME280;5668;52.012;8.724;2023-08-07T01:48:48;99434.28;;;17.18;100.00
11223;BME280;5668;52.012;8.724;2023-08-07T01:51:15;99431.34;;;17.13;100.00
11223;BME280;5668;52.012;8.724;2023-08-07T01:53:42;99427.91;;;17.12;100.00
11223;BME280;5668;52.012;8.724;2023-08-07T01:56:11;99430.88;;;17.09;100.00
11223;BME280;5668;52.012;8.724;2023-08-07T01:58:38;99430.88;;;17.09;100.00
11223;BME280;5668;52.012;8.724;2023-08-07T02:01:05;99433.16;;;17.12;100.00
11223;BME280;5668;52.012;8.724;2023-08-07T02:03:32;99437.44;;;17.13;100.00
11223;BME280;5668;52.012;8.724;2023-08-07T02:05:59;99434.63;;;17.15;100.00
11223;BME280;5668;52.012;8.724;2023-08-07T02:08:27;99427.38;;;17.17;100.00
11223;BME280;5668;52.012;8.724;2023-08-07T02:10:55;99434.28;;;17.18;100.00
11223;BME280;5668;52.012;8.724;2023-08-07T02:13:23;99429.84;;;17.18;100.00
11223;BME280;5668;52.012;8.724;2023-08-07T02:15:50;99437.56;;;17.20;100.00
11223;BME280;5668;52.012;8.724;2023-08-07T02:18:18;99438.19;;;17.22;100.00
11223;BME280;5668;52.012;8.724;2023-08-07T02:20:45;99431.13;;;17.22;100.00
11223;BME280;5668;52.012;8.724;2023-08-07T02:23:13;99437.03;;;17.24;100.00
11223;BME280;5668;52.012;8.724;2023-08-07T02:25:40;99437.84;;;17.25;100.00
11223;BME280;5668;52.012;8.724;2023-08-07T02:28:07;99429.53;;;17.21;100.00
11223;BME280;5668;52.012;8.724;2023-08-07T02:30:35;99431.66;;;17.18;100.00
11223;BME280;5668;52.012;8.724;2023-08-07T02:33:03;99442.31;;;17.16;100.00
11223;BME280;5668;52.012;8.724;2023-08-07T02:35:30;99433.78;;;17.14;100.00
11223;BME280;5668;52.012;8.724;2023-08-07T02:37:57;99433.00;;;17.14;100.00
11223;BME280;5668;52.012;8.724;2023-08-07T02:40:24;99435.78;;;17.12;100.00
11223;BME280;5668;52.012;8.724;2023-08-07T02:42:51;99433.16;;;17.12;100.00
11223;BME280;5668;52.012;8.724;2023-08-07T02:45:19;99434.97;;;17.12;100.00
11223;BME280;5668;52.012;8.724;2023-08-07T02:47:47;99434.63;;;17.07;100.00
11223;BME280;5668;52.012;8.724;2023-08-07T02:50:15;99440.09;;;17.05;100.00
11223;BME280;5668;52.012;8.724;2023-08-07T02:52:43;99434.00;;;17.05;100.00
11223;BME280;5668;52.012;8.724;2023-08-07T02:55:10;99435.16;;;17.02;100.00
11223;BME280;5668;52.012;8.724;2023-08-07T02:57:37;99435.97;;;17.02;100.00
11223;BME280;5668;52.012;8.724;2023-08-07T03:05:18;99430.25;;;16.99;100.00
11223;BME280;5668;52.012;8.724;2023-08-07T03:07:45;99432.25;;;16.97;100.00
11223;BME280;5668;52.012;8.724;2023-08-07T03:10:13;99427.63;;;16.99;100.00
11223;BME280;5668;52.012;8.724;2023-08-07T03:12:40;99434.88;;;16.97;100.00
11223;BME280;5668;52.012;8.724;2023-08-07T03:15:08;99431.25;;;16.98;100.00
11223;BME280;5668;52.012;8.724;2023-08-07T03:17:35;99440.28;;;16.95;100.00
11223;BME280;5668;52.012;8.724;2023-08-07T03:20:03;99441.09;;;16.96;100.00
11223;BME280;5668;52.012;8.724;2023-08-07T03:22:32;99436.66;;;16.96;100.00
11223;BME280;5668;52.012;8.724;2023-08-07T03:24:59;99436.50;;;16.98;100.00
11223;BME280;5668;52.012;8.724;2023-08-07T03:27:27;99435.50;;;16.99;100.00
11223;BME280;5668;52.012;8.724;2023-08-07T03:29:54;99431.88;;;17.00;100.00
11223;BME280;5668;52.012;8.724;2023-08-07T03:32:21;99439.94;;;16.98;100.00
11223;BME280;5668;52.012;8.724;2023-08-07T03:34:49;99433.88;;;16.98;100.00
11223;BME280;5668;52.012;8.724;2023-08-07T03:37:16;99439.13;;;16.98;100.00
11223;BME280;5668;52.012;8.724;2023-08-07T03:39:44;99437.13;;;17.00;100.00
11223;BME280;5668;52.012;8.724;2023-08-07T03:42:14;99428.44;;;16.99;100.00
11223;BME280;5668;52.012;8.724;2023-08-07T03:44:41;99435.97;;;17.02;100.00
11223;BME280;5668;52.012;8.724;2023-08-07T03:47:09;99430.91;;;17.01;100.00
11223;BME280;5668;52.012;8.724;2023-08-07T03:49:36;99434.50;;;17.00;100.00
11223;BME280;5668;52.012;8.724;2023-08-07T03:52:04;99431.88;;;17.00;100.00
11223;BME280;5668;52.012;8.724;2023-08-07T03:54:31;99433.53;;;17.01;100.00
11223;BME280;5668;52.012;8.724;2023-08-07T03:56:59;99441.75;;;16.98;100.00
11223;BME280;5668;52.012;8.724;2023-08-07T03:59:26;99429.44;;;16.98;100.00
11223;BME280;5668;52.012;8.724;2023-08-07T04:01:54;99434.34;;;17.01;100.00
11223;BME280;5668;52.012;8.724;2023-08-07T04:04:21;99445.66;;;17.02;100.00
11223;BME280;5668;52.012;8.724;2023-08-07T04:06:48;99439.75;;;17.00;100.00
11223;BME280;5668;52.012;8.724;2023-08-07T04:09:15;99438.78;;;17.01;100.00
11223;BME280;5668;52.012;8.724;2023-08-07T04:11:43;99444.03;;;17.01;100.00
11223;BME280;5668;52.012;8.724;2023-08-07T04:14:12;99439.75;;;17.00;100.00
11223;BME280;5668;52.012;8.724;2023-08-07T04:16:39;99434.69;;;16.98;100.00
11223;BME280;5668;52.012;8.724;2023-08-07T04:19:06;99439.13;;;16.98;100.00
11223;BME280;5668;52.012;8.724;2023-08-07T04:21:34;99437.50;;;16.97;100.00
11223;BME280;5668;52.012;8.724;2023-08-07T04:24:01;99444.38;;;16.98;100.00
11223;BME280;5668;52.012;8.724;2023-08-07T04:26:33;99438.78;;;17.01;100.00
11223;BME280;5668;52.012;8.724;2023-08-07T04:29:01;99445.34;;;17.05;100.00
11223;BME280;5668;52.012;8.724;2023-08-07T04:31:29;99438.91;;;17.08;100.00
11223;BME280;5668;52.012;8.724;2023-08-07T04:33:57;99448.25;;;17.10;100.00
11223;BME280;5668;52.012;8.724;2023-08-07T04:36:24;99443.84;;;17.11;100.00
11223;BME280;5668;52.012;8.724;2023-08-07T04:38:52;99444.28;;;17.14;100.00
11223;BME280;5668;52.012;8.724;2023-08-07T04:41:21;99440.69;;;17.15;100.00
11223;BME280;5668;52.012;8.724;2023-08-07T04:43:48;99449.22;;;17.17;100.00
11223;BME280;5668;52.012;8.724;2023-08-07T04:46:15;99458.91;;;17.17;100.00
11223;BME280;5668;52.012;8.724;2023-08-07T04:48:44;99455.44;;;17.16;100.00
11223;BME280;5668;52.012;8.724;2023-08-07T04:51:11;99456.06;;;17.65;100.00
11223;BME280;5668;52.012;8.724;2023-08-07T04:53:39;99463.88;;;17.42;100.00
11223;BME280;5668;52.012;8.724;2023-08-07T04:56:06;99463.59;;;17.29;100.00
11223;BME280;5668;52.012;8.724;2023-08-07T04:58:33;99469.06;;;17.20;100.00
11223;BME280;5668;52.012;8.724;2023-08-07T05:01:00;99461.69;;;17.15;100.00
11223;BME280;5668;52.012;8.724;2023-08-07T05:03:28;99468.59;;;17.16;100.00
11223;BME280;5668;52.012;8.724;2023-08-07T05:06:01;99474.53;;;17.10;100.00
11223;BME280;5668;52.012;8.724;2023-08-07T05:08:28;99481.75;;;17.08;100.00
11223;BME280;5668;52.012;8.724;2023-08-07T05:10:56;99477.47;;;17.07;100.00
11223;BME280;5668;52.012;8.724;2023-08-07T05:13:23;99477.66;;;17.06;100.00
11223;BME280;5668;52.012;8.724;2023-08-07T05:15:50;99480.63;;;17.02;100.00
11223;BME280;5668;52.012;8.724;2023-08-07T05:18:17;99475.53;;;17.01;100.00
11223;BME280;5668;52.012;8.724;2023-08-07T05:20:44;99477.16;;;17.02;100.00
11223;BME280;5668;52.012;8.724;2023-08-07T05:23:13;99471.91;;;17.02;100.00
11223;BME280;5668;52.012;8.724;2023-08-07T05:25:40;99473.88;;;17.00;100.00
11223;BME280;5668;52.012;8.724;2023-08-07T05:28:07;99474.25;;;16.97;100.00
11223;BME280;5668;52.012;8.724;2023-08-07T05:30:35;99478.66;;;16.96;100.00
11223;BME280;5668;52.012;8.724;2023-08-07T05:33:02;99486.38;;;16.98;100.00
11223;BME280;5668;52.012;8.724;2023-08-07T05:35:29;99486.53;;;16.96;100.00
11223;BME280;5668;52.012;8.724;2023-08-07T05:37:57;99484.38;;;17.00;100.00
11223;BME280;5668;52.012;8.724;2023-08-07T05:40:25;99490.63;;;16.99;100.00
11223;BME280;5668;52.012;8.724;2023-08-07T05:42:52;99486.38;;;16.98;100.00
11223;BME280;5668;52.012;8.724;2023-08-07T05:45:20;99491.63;;;16.98;100.00
11223;BME280;5668;52.012;8.724;2023-08-07T05:47:47;99495.06;;;16.98;100.00
11223;BME280;5668;52.012;8.724;2023-08-07T05:50:14;99492.25;;;17.00;100.00
11223;BME280;5668;52.012;8.724;2023-08-07T05:52:42;99495.88;;;16.99;100.00
11223;BME280;5668;52.012;8.724;2023-08-07T05:55:09;99492.25;;;17.00;100.00
11223;BME280;5668;52.012;8.724;2023-08-07T05:57:38;99496.88;;;16.98;100.00
11223;BME280;5668;52.012;8.724;2023-08-07T06:00:06;99498.69;;;16.97;100.00
11223;BME280;5668;52.012;8.724;2023-08-07T06:02:39;99498.84;;;16.96;100.00
11223;BME280;5668;52.012;8.724;2023-08-07T06:05:07;99494.88;;;17.00;100.00
11223;BME280;5668;52.012;8.724;2023-08-07T06:07:35;99504.09;;;17.04;100.00
11223;BME280;5668;52.012;8.724;2023-08-07T06:10:03;99507.69;;;17.03;100.00
11223;BME280;5668;52.012;8.724;2023-08-07T06:12:31;99507.03;;;17.01;100.00
11223;BME280;5668;52.012;8.724;2023-08-07T06:15:00;99510.63;;;17.00;100.00
11223;BME280;5668;52.012;8.724;2023-08-07T06:17:27;99510.63;;;17.00;100.00
11223;BME280;5668;52.012;8.724;2023-08-07T06:19:55;99515.88;;;17.00;100.00
11223;BME280;5668;52.012;8.724;2023-08-07T06:22:22;99526.75;;;16.97;100.00
11223;BME280;5668;52.012;8.724;2023-08-07T06:24:49;99513.25;;;17.00;100.00
11223;BME280;5668;52.012;8.724;2023-08-07T06:27:17;99516.53;;;17.02;100.00
11223;BME280;5668;52.012;8.724;2023-08-07T06:29:44;99522.28;;;17.06;100.00
11223;BME280;5668;52.012;8.724;2023-08-07T06:32:12;99531.31;;;17.03;100.00
11223;BME280;5668;52.012;8.724;2023-08-07T06:34:39;99526.88;;;17.03;100.00
11223;BME280;5668;52.012;8.724;2023-08-07T06:37:07;99525.09;;;17.04;100.00
11223;BME280;5668;52.012;8.724;2023-08-07T06:39:34;99532.13;;;17.03;100.00
11223;BME280;5668;52.012;8.724;2023-08-07T06:42:01;99531.31;;;17.03;100.00
11223;BME280;5668;52.012;8.724;2023-08-07T06:44:29;99529.66;;;17.02;100.00
11223;BME280;5668;52.012;8.724;2023-08-07T06:46:56;99534.09;;;17.01;100.00
11223;BME280;5668;52.012;8.724;2023-08-07T06:49:24;99531.31;;;17.03;100.00
11223;BME280;5668;52.012;8.724;2023-08-07T06:51:52;99535.22;;;17.07;100.00
11223;BME280;5668;52.012;8.724;2023-08-07T06:54:19;99530.31;;;17.12;100.00
11223;BME280;5668;52.012;8.724;2023-08-07T06:56:46;99541.44;;;17.14;100.00
11223;BME280;5668;52.012;8.724;2023-08-07T06:59:13;99540.47;;;17.15;100.00
11223;BME280;5668;52.012;8.724;2023-08-07T07:01:40;99542.78;;;17.18;100.00
11223;BME280;5668;52.012;8.724;2023-08-07T07:04:08;99545.84;;;17.22;100.00
11223;BME280;5668;52.012;8.724;2023-08-07T07:06:37;99538.31;;;17.27;100.00
11223;BME280;5668;52.012;8.724;2023-08-07T07:09:05;99544.38;;;17.27;100.00
11223;BME280;5668;52.012;8.724;2023-08-07T07:11:32;99544.03;;;17.30;100.00
11223;BME280;5668;52.012;8.724;2023-08-07T07:14:00;99549.13;;;17.32;100.00
11223;BME280;5668;52.012;8.724;2023-08-07T07:16:27;99542.06;;;17.32;100.00
11223;BME280;5668;52.012;8.724;2023-08-07T07:18:55;99544.22;;;17.29;100.00
11223;BME280;5668;52.012;8.724;2023-08-07T07:21:24;99551.28;;;17.28;100.00
11223;BME280;5668;52.012;8.724;2023-08-07T07:23:52;99553.25;;;17.26;100.00
11223;BME280;5668;52.012;8.724;2023-08-07T07:26:19;99551.44;;;17.27;100.00
11223;BME280;5668;52.012;8.724;2023-08-07T07:28:47;99556.19;;;17.23;100.00
11223;BME280;5668;52.012;8.724;2023-08-07T07:31:14;99560.81;;;17.21;100.00
11223;BME280;5668;52.012;8.724;2023-08-07T07:33:41;99559.19;;;17.20;100.00
11223;BME280;5668;52.012;8.724;2023-08-07T07:36:15;99560.00;;;17.21;100.00
11223;BME280;5668;52.012;8.724;2023-08-07T07:38:42;99572.31;;;17.20;100.00
11223;BME280;5668;52.012;8.724;2023-08-07T07:41:10;99561.81;;;17.20;100.00
11223;BME280;5668;52.012;8.724;2023-08-07T07:43:38;99570.16;;;17.24;100.00
11223;BME280;5668;52.012;8.724;2023-08-07T07:46:05;99568.19;;;17.26;100.00
11223;BME280;5668;52.012;8.724;2023-08-07T07:48:32;99575.25;;;17.25;100.00
11223;BME280;5668;52.012;8.724;2023-08-07T07:51:00;99575.91;;;17.27;100.00
11223;BME280;5668;52.012;8.724;2023-08-07T07:53:28;99573.75;;;17.31;100.00
11223;BME280;5668;52.012;8.724;2023-08-07T07:55:55;99579.66;;;17.33;100.00
11223;BME280;5668;52.012;8.724;2023-08-07T07:58:24;99573.06;;;17.37;100.00
11223;BME280;5668;52.012;8.724;2023-08-07T08:00:51;99580.16;;;17.36;100.00
11223;BME280;5668;52.012;8.724;2023-08-07T08:03:20;99584.59;;;17.36;100.00
11223;BME280;5668;52.012;8.724;2023-08-07T08:05:50;99585.41;;;17.36;100.00
11223;BME280;5668;52.012;8.724;2023-08-07T08:08:18;99588.19;;;17.35;100.00
11223;BME280;5668;52.012;8.724;2023-08-07T08:10:45;99591.44;;;17.37;100.00
11223;BME280;5668;52.012;8.724;2023-08-07T08:13:13;99603.44;;;17.39;100.00
11223;BME280;5668;52.012;8.724;2023-08-07T08:15:42;99607.72;;;17.40;100.00
11223;BME280;5668;52.012;8.724;2023-08-07T08:18:09;99607.72;;;17.40;100.00
11223;BME280;5668;52.012;8.724;2023-08-07T08:20:37;99609.69;;;17.38;100.00
11223;BME280;5668;52.012;8.724;2023-08-07T08:23:04;99613.47;;;17.36;100.00
11223;BME280;5668;52.012;8.724;2023-08-07T08:25:31;99604.59;;;17.37;100.00
11223;BME280;5668;52.012;8.724;2023-08-07T08:27:59;99604.41;;;17.47;100.00
11223;BME280;5668;52.012;8.724;2023-08-07T08:30:26;99614.91;;;17.55;100.00
11223;BME280;5668;52.012;8.724;2023-08-07T08:32:54;99603.69;;;17.61;100.00
11223;BME280;5668;52.012;8.724;2023-08-07T08:35:22;99604.88;;;17.66;100.00
11223;BME280;5668;52.012;8.724;2023-08-07T08:37:49;99597.47;;;17.70;100.00
11223;BME280;5668;52.012;8.724;2023-08-07T08:40:17;99608.13;;;17.68;100.00
11223;BME280;5668;52.012;8.724;2023-08-07T08:42:46;99613.41;;;17.68;100.00
11223;BME280;5668;52.012;8.724;2023-08-07T08:45:14;99608.81;;;17.70;100.00
11223;BME280;5668;52.012;8.724;2023-08-07T08:47:42;99607.31;;;17.68;100.00
11223;BME280;5668;52.012;8.724;2023-08-07T08:50:16;99609.63;;;17.71;100.00
11223;BME280;5668;52.012;8.724;2023-08-07T08:52:44;99614.75;;;17.64;100.00
11223;BME280;5668;52.012;8.724;2023-08-07T08:55:13;99633.59;;;17.60;100.00
11223;BME280;5668;52.012;8.724;2023-08-07T08:57:41;99636.22;;;17.60;100.00
11223;BME280;5668;52.012;8.724;2023-08-07T09:00:10;99638.41;;;17.64;100.00
11223;BME280;5668;52.012;8.724;2023-08-07T09:02:44;99627.03;;;17.72;100.00
11223;BME280;5668;52.012;8.724;2023-08-07T09:05:14;99634.22;;;17.78;100.00
11223;BME280;5668;52.012;8.724;2023-08-07T09:07:42;99633.22;;;17.87;100.00
11223;BME280;5668;52.012;8.724;2023-08-07T09:10:13;99637.13;;;17.91;100.00
11223;BME280;5668;52.012;8.724;2023-08-07T09:12:42;99628.25;;;17.92;100.00
11223;BME280;5668;52.012;8.724;2023-08-07T09:15:13;99630.84;;;18.00;100.00
11223;BME280;5668;52.012;8.724;2023-08-07T09:17:43;99637.41;;;18.04;100.00
11223;BME280;5668;52.012;8.724;2023-08-07T09:20:14;99628.47;;;18.13;100.00
11223;BME280;5668;52.012;8.724;2023-08-07T09:22:42;99627.16;;;18.17;100.00
11223;BME280;5668;52.012;8.724;2023-08-07T09:25:10;99643.06;;;18.24;100.00
11223;BME280;5668;52.012;8.724;2023-08-07T09:27:37;99642.38;;;18.30;100.00
11223;BME280;5668;52.012;8.724;2023-08-07T09:30:06;99645.66;;;18.32;100.00
11223;BME280;5668;52.012;8.724;2023-08-07T09:32:35;99638.22;;;18.36;100.00
11223;BME280;5668;52.012;8.724;2023-08-07T09:35:05;99643.97;;;18.39;100.00
11223;BME280;5668;52.012;8.724;2023-08-07T09:37:36;99638.53;;;18.41;100.00
11223;BME280;5668;52.012;8.724;2023-08-07T09:40:06;99648.25;;;18.40;100.00
11223;BME280;5668;52.012;8.724;2023-08-07T09:42:37;99660.41;;;18.41;100.00
11223;BME280;5668;52.012;8.724;2023-08-07T09:45:19;99670.97;;;18.33;99.95
11223;BME280;5668;52.012;8.724;2023-08-07T09:47:47;99675.91;;;18.28;100.00
11223;BME280;5668;52.012;8.724;2023-08-07T09:50:23;99680.06;;;18.23;100.00
11223;BME280;5668;52.012;8.724;2023-08-07T09:52:52;99675.84;;;18.05;100.00
11223;BME280;5668;52.012;8.724;2023-08-07T09:55:19;99673.75;;;18.01;100.00
11223;BME280;5668;52.012;8.724;2023-08-07T09:57:46;99688.72;;;18.00;99.28
11223;BME280;5668;52.012;8.724;2023-08-07T10:00:14;99690.34;;;18.01;99.75
11223;BME280;5668;52.012;8.724;2023-08-07T10:02:42;99696.25;;;18.03;100.00
11223;BME280;5668;52.012;8.724;2023-08-07T10:05:11;99689.66;;;18.07;99.80
11223;BME280;5668;52.012;8.724;2023-08-07T10:07:39;99696.25;;;18.03;99.36
11223;BME280;5668;52.012;8.724;2023-08-07T10:10:11;99704.16;;;18.03;99.50
11223;BME280;5668;52.012;8.724;2023-08-07T10:12:39;99703.47;;;18.09;99.54
11223;BME280;5668;52.012;8.724;2023-08-07T10:15:07;99712.81;;;18.12;99.99
11223;BME280;5668;52.012;8.724;2023-08-07T10:17:34;99708.38;;;18.12;99.27
11223;BME280;5668;52.012;8.724;2023-08-07T10:20:02;99710.34;;;18.18;99.30
11223;BME280;5668;52.012;8.724;2023-08-07T10:22:31;99703.41;;;18.26;99.44
11223;BME280;5668;52.012;8.724;2023-08-07T10:25:01;99703.53;;;18.32;99.62
11223;BME280;5668;52.012;8.724;2023-08-07T10:27:33;99695.00;;;18.30;100.00
11223;BME280;5668;52.012;8.724;2023-08-07T10:30:04;99705.19;;;18.33;100.00
11223;BME280;5668;52.012;8.724;2023-08-07T10:32:33;99693.13;;;18.39;100.00
11223;BME280;5668;52.012;8.724;2023-08-07T10:35:03;99696.94;;;18.36;97.75
11223;BME280;5668;52.012;8.724;2023-08-07T10:37:41;99708.94;;;18.39;95.81
11223;BME280;5668;52.012;8.724;2023-08-07T10:40:11;99710.56;;;18.40;94.83
11223;BME280;5668;52.012;8.724;2023-08-07T10:43:00;99712.72;;;18.36;95.74
11223;BME280;5668;52.012;8.724;2023-08-07T10:45:38;99719.19;;;18.26;97.15
11223;BME280;5668;52.012;8.724;2023-08-07T10:48:07;99746.84;;;18.13;97.37
11223;BME280;5668;52.012;8.724;2023-08-07T10:50:48;99748.19;;;18.01;96.73
11223;BME280;5668;52.012;8.724;2023-08-07T10:53:19;99752.50;;;17.94;96.84
11223;BME280;5668;52.012;8.724;2023-08-07T10:55:48;99745.91;;;17.90;96.66
11223;BME280;5668;52.012;8.724;2023-08-07T10:58:24;99744.63;;;17.86;96.88
11223;BME280;5668;52.012;8.724;2023-08-07T11:00:52;99737.72;;;17.85;96.69
11223;BME280;5668;52.012;8.724;2023-08-07T11:03:39;99750.56;;;17.80;95.70
11223;BME280;5668;52.012;8.724;2023-08-07T11:06:08;99746.94;;;17.81;95.16
11223;BME280;5668;52.012;8.724;2023-08-07T11:08:36;99753.16;;;17.88;94.09
11223;BME280;5668;52.012;8.724;2023-08-07T11:11:05;99747.56;;;17.91;92.54
11223;BME280;5668;52.012;8.724;2023-08-07T11:13:33;99758.56;;;17.95;91.16
11223;BME280;5668;52.012;8.724;2023-08-07T11:16:01;99762.34;;;18.00;90.52
11223;BME280;5668;52.012;8.724;2023-08-07T11:18:29;99753.44;;;18.09;90.10
11223;BME280;5668;52.012;8.724;2023-08-07T11:20:57;99771.50;;;18.12;90.33
11223;BME280;5668;52.012;8.724;2023-08-07T11:23:25;99786.66;;;18.02;87.62
11223;BME280;5668;52.012;8.724;2023-08-07T11:25:53;99812.31;;;17.84;87.42
11223;BME280;5668;52.012;8.724;2023-08-07T11:28:21;99820.88;;;17.70;89.75
11223;BME280;5668;52.012;8.724;2023-08-07T11:30:51;99821.50;;;17.56;91.03
11223;BME280;5668;52.012;8.724;2023-08-07T11:33:20;99822.47;;;17.55;92.17
11223;BME280;5668;52.012;8.724;2023-08-07T11:35:48;99819.69;;;17.48;91.92
11223;BME280;5668;52.012;8.724;2023-08-07T11:38:29;99823.13;;;17.49;92.36
11223;BME280;5668;52.012;8.724;2023-08-07T11:40:58;99817.22;;;17.47;92.11
11223;BME280;5668;52.012;8.724;2023-08-07T11:43:27;99810.00;;;17.49;91.17
11223;BME280;5668;52.012;8.724;2023-08-07T11:45:57;99812.13;;;17.53;91.41
11223;BME280;5668;52.012;8.724;2023-08-07T11:48:25;99811.31;;;17.53;91.06
11223;BME280;5668;52.012;8.724;2023-08-07T11:50:53;99816.56;;;17.53;91.15
11223;BME280;5668;52.012;8.724;2023-08-07T11:53:21;99818.19;;;17.54;91.19
11223;BME280;5668;52.012;8.724;2023-08-07T11:55:52;99810.66;;;17.51;90.74
11223;BME280;5668;52.012;8.724;2023-08-07T11:58:20;99814.91;;;17.52;90.67
11223;BME280;5668;52.012;8.724;2023-08-07T12:00:48;99818.88;;;17.56;91.35
11223;BME280;5668;52.012;8.724;2023-08-07T12:03:28;99815.09;;;17.58;90.86
11223;BME280;5668;52.012;8.724;2023-08-07T12:05:57;99819.56;;;17.66;91.14
11223;BME280;5668;52.012;8.724;2023-08-07T12:08:25;99815.09;;;17.74;91.76
11223;BME280;5668;52.012;8.724;2023-08-07T12:10:57;99815.94;;;17.75;90.83
11223;BME280;5668;52.012;8.724;2023-08-07T12:13:25;99818.06;;;17.79;90.38
11223;BME280;5668;52.012;8.724;2023-08-07T12:15:54;99819.06;;;17.87;89.97
11223;BME280;5668;52.012;8.724;2023-08-07T12:18:22;99817.72;;;17.91;88.80
11223;BME280;5668;52.012;8.724;2023-08-07T12:20:51;99813.94;;;17.93;86.93
11223;BME280;5668;52.012;8.724;2023-08-07T12:23:21;99814.94;;;18.00;84.56
11223;BME280;5668;52.012;8.724;2023-08-07T12:25:48;99806.34;;;18.14;85.85
11223;BME280;5668;52.012;8.724;2023-08-07T12:28:16;99813.91;;;18.26;85.53
11223;BME280;5668;52.012;8.724;2023-08-07T12:30:45;99808.63;;;18.34;85.50
11223;BME280;5668;52.012;8.724;2023-08-07T12:33:14;99805.31;;;18.40;84.89
11223;BME280;5668;52.012;8.724;2023-08-07T12:35:41;99806.25;;;18.47;83.08
11223;BME280;5668;52.012;8.724;2023-08-07T12:38:10;99818.06;;;18.51;81.03
11223;BME280;5668;52.012;8.724;2023-08-07T12:40:40;99815.13;;;18.54;79.62
11223;BME280;5668;52.012;8.724;2023-08-07T12:43:07;99815.28;;;18.52;79.10
11223;BME280;5668;52.012;8.724;2023-08-07T12:45:35;99829.59;;;18.58;78.80
11223;BME280;5668;52.012;8.724;2023-08-07T12:48:02;99828.09;;;18.55;78.39
11223;BME280;5668;52.012;8.724;2023-08-07T12:50:29;99829.91;;;18.55;77.17
11223;BME280;5668;52.012;8.724;2023-08-07T12:52:57;99842.41;;;18.53;77.39
11223;BME280;5668;52.012;8.724;2023-08-07T12:55:26;99832.41;;;18.57;78.85
11223;BME280;5668;52.012;8.724;2023-08-07T12:57:54;99839.28;;;18.58;79.87
11223;BME280;5668;52.012;8.724;2023-08-07T13:00:22;99834.84;;;18.58;80.87
11223;BME280;5668;52.012;8.724;2023-08-07T13:02:50;99830.75;;;18.64;81.94
11223;BME280;5668;52.012;8.724;2023-08-07T13:05:19;99844.03;;;18.70;82.11
11223;BME280;5668;52.012;8.724;2023-08-07T13:07:47;99850.13;;;18.71;80.38
11223;BME280;5668;52.012;8.724;2023-08-07T13:10:16;99857.22;;;18.62;77.59
11223;BME280;5668;52.012;8.724;2023-08-07T13:12:47;99852.13;;;18.61;76.70
11223;BME280;5668;52.012;8.724;2023-08-07T13:15:16;99856.25;;;18.63;76.97